sensor_id;sensor_type;location;lat;lon;timestamp;P1;durP1;ratioP1;P2;durP2;ratioP2
56122;SDS011;42426;46.104;19.656;2023-06-22T00:01:53;36.05;;;25.08;;
56122;SDS011;42426;46.104;19.656;2023-06-22T00:04:19;31.90;;;25.63;;
56122;SDS011;42426;46.104;19.656;2023-06-22T00:06:45;28.33;;;22.35;;
56122;SDS011;42426;46.104;19.656;2023-06-22T00:09:10;29.27;;;21.60;;
56122;SDS011;42426;46.104;19.656;2023-06-22T00:11:36;25.77;;;22.02;;
56122;SDS011;42426;46.104;19.656;2023-06-22T00:14:04;23.58;;;21.10;;
56122;SDS011;42426;46.104;19.656;2023-06-22T00:16:31;26.05;;;20.80;;
56122;SDS011;42426;46.104;19.656;2023-06-22T00:18:57;22.42;;;19.92;;
56122;SDS011;42426;46.104;19.656;2023-06-22T00:21:25;22.58;;;20.10;;
56122;SDS011;42426;46.104;19.656;2023-06-22T00:23:51;23.25;;;18.77;;
56122;SDS011;42426;46.104;19.656;2023-06-22T00:26:19;21.42;;;19.15;;
56122;SDS011;42426;46.104;19.656;2023-06-22T00:28:45;23.77;;;17.50;;
56122;SDS011;42426;46.104;19.656;2023-06-22T00:31:12;19.52;;;17.30;;
56122;SDS011;42426;46.104;19.656;2023-06-22T00:33:38;18.85;;;15.77;;
56122;SDS011;42426;46.104;19.656;2023-06-22T00:36:03;18.88;;;16.48;;
56122;SDS011;42426;46.104;19.656;2023-06-22T00:38:30;18.77;;;16.15;;
56122;SDS011;42426;46.104;19.656;2023-06-22T00:40:56;16.75;;;15.10;;
56122;SDS011;42426;46.104;19.656;2023-06-22T00:43:22;18.23;;;15.25;;
56122;SDS011;42426;46.104;19.656;2023-06-22T00:45:48;18.23;;;15.43;;
56122;SDS011;42426;46.104;19.656;2023-06-22T00:48:14;20.30;;;15.32;;
56122;SDS011;42426;46.104;19.656;2023-06-22T00:50:40;17.48;;;13.90;;
56122;SDS011;42426;46.104;19.656;2023-06-22T00:53:08;16.33;;;14.23;;
56122;SDS011;42426;46.104;19.656;2023-06-22T00:55:38;15.90;;;13.85;;
56122;SDS011;42426;46.104;19.656;2023-06-22T00:58:16;16.02;;;13.52;;
56122;SDS011;42426;46.104;19.656;2023-06-22T01:00:42;13.25;;;11.88;;
56122;SDS011;42426;46.104;19.656;2023-06-22T01:03:08;13.60;;;11.98;;
56122;SDS011;42426;46.104;19.656;2023-06-22T01:05:34;13.35;;;11.57;;
56122;SDS011;42426;46.104;19.656;2023-06-22T01:16:29;14.38;;;10.82;;
56122;SDS011;42426;46.104;19.656;2023-06-22T01:18:57;14.48;;;10.57;;
56122;SDS011;42426;46.104;19.656;2023-06-22T01:21:28;12.00;;;10.07;;
56122;SDS011;42426;46.104;19.656;2023-06-22T01:26:35;16.70;;;9.57;;
56122;SDS011;42426;46.104;19.656;2023-06-22T01:29:15;12.23;;;9.73;;
56122;SDS011;42426;46.104;19.656;2023-06-22T01:31:42;15.45;;;10.70;;
56122;SDS011;42426;46.104;19.656;2023-06-22T01:34:10;20.90;;;10.77;;
56122;SDS011;42426;46.104;19.656;2023-06-22T01:36:37;11.65;;;8.68;;
56122;SDS011;42426;46.104;19.656;2023-06-22T01:39:05;11.68;;;8.90;;
56122;SDS011;42426;46.104;19.656;2023-06-22T01:41:34;13.25;;;8.80;;
56122;SDS011;42426;46.104;19.656;2023-06-22T01:44:02;11.93;;;8.52;;
56122;SDS011;42426;46.104;19.656;2023-06-22T01:46:32;10.35;;;7.65;;
56122;SDS011;42426;46.104;19.656;2023-06-22T01:48:59;8.73;;;7.82;;
56122;SDS011;42426;46.104;19.656;2023-06-22T01:51:26;8.43;;;7.50;;
56122;SDS011;42426;46.104;19.656;2023-06-22T01:53:52;9.98;;;6.70;;
56122;SDS011;42426;46.104;19.656;2023-06-22T01:56:19;8.02;;;6.85;;
56122;SDS011;42426;46.104;19.656;2023-06-22T01:58:47;7.00;;;5.97;;
56122;SDS011;42426;46.104;19.656;2023-06-22T02:01:24;9.50;;;7.07;;
56122;SDS011;42426;46.104;19.656;2023-06-22T02:04:03;8.00;;;5.95;;
56122;SDS011;42426;46.104;19.656;2023-06-22T02:06:35;8.90;;;6.47;;
56122;SDS011;42426;46.104;19.656;2023-06-22T02:09:08;11.05;;;6.45;;
56122;SDS011;42426;46.104;19.656;2023-06-22T02:14:04;10.82;;;6.38;;
56122;SDS011;42426;46.104;19.656;2023-06-22T02:16:31;8.48;;;5.90;;
56122;SDS011;42426;46.104;19.656;2023-06-22T02:18:57;8.90;;;6.20;;
56122;SDS011;42426;46.104;19.656;2023-06-22T02:21:28;11.20;;;6.25;;
56122;SDS011;42426;46.104;19.656;2023-06-22T02:23:54;8.45;;;6.47;;
56122;SDS011;42426;46.104;19.656;2023-06-22T02:26:20;11.07;;;6.40;;
56122;SDS011;42426;46.104;19.656;2023-06-22T02:28:46;8.40;;;6.57;;
56122;SDS011;42426;46.104;19.656;2023-06-22T02:31:12;10.60;;;6.53;;
56122;SDS011;42426;46.104;19.656;2023-06-22T02:33:37;9.27;;;6.40;;
56122;SDS011;42426;46.104;19.656;2023-06-22T02:36:03;11.23;;;6.85;;
56122;SDS011;42426;46.104;19.656;2023-06-22T02:38:30;13.57;;;6.70;;
56122;SDS011;42426;46.104;19.656;2023-06-22T02:40:58;11.00;;;6.38;;
56122;SDS011;42426;46.104;19.656;2023-06-22T02:43:24;10.63;;;5.97;;
56122;SDS011;42426;46.104;19.656;2023-06-22T02:45:51;8.80;;;6.65;;
56122;SDS011;42426;46.104;19.656;2023-06-22T02:48:17;9.90;;;6.50;;
56122;SDS011;42426;46.104;19.656;2023-06-22T02:50:42;9.30;;;6.38;;
56122;SDS011;42426;46.104;19.656;2023-06-22T02:53:08;7.53;;;6.63;;
56122;SDS011;42426;46.104;19.656;2023-06-22T02:55:34;12.90;;;7.43;;
56122;SDS011;42426;46.104;19.656;2023-06-22T02:58:00;9.15;;;6.88;;
56122;SDS011;42426;46.104;19.656;2023-06-22T03:00:29;8.10;;;6.72;;
56122;SDS011;42426;46.104;19.656;2023-06-22T03:02:56;8.75;;;6.55;;
56122;SDS011;42426;46.104;19.656;2023-06-22T03:05:22;10.35;;;6.60;;
56122;SDS011;42426;46.104;19.656;2023-06-22T03:07:48;9.82;;;6.20;;
56122;SDS011;42426;46.104;19.656;2023-06-22T03:10:14;9.45;;;8.25;;
56122;SDS011;42426;46.104;19.656;2023-06-22T03:12:42;9.25;;;6.70;;
56122;SDS011;42426;46.104;19.656;2023-06-22T03:15:09;11.10;;;6.90;;
56122;SDS011;42426;46.104;19.656;2023-06-22T03:17:37;7.90;;;7.07;;
56122;SDS011;42426;46.104;19.656;2023-06-22T03:20:06;9.98;;;6.97;;
56122;SDS011;42426;46.104;19.656;2023-06-22T03:22:34;9.93;;;7.05;;
56122;SDS011;42426;46.104;19.656;2023-06-22T03:25:04;8.77;;;6.85;;
56122;SDS011;42426;46.104;19.656;2023-06-22T03:27:39;8.50;;;6.80;;
56122;SDS011;42426;46.104;19.656;2023-06-22T03:30:06;9.32;;;7.13;;
56122;SDS011;42426;46.104;19.656;2023-06-22T03:32:33;8.98;;;7.38;;
56122;SDS011;42426;46.104;19.656;2023-06-22T03:34:59;9.63;;;6.90;;
56122;SDS011;42426;46.104;19.656;2023-06-22T03:37:25;10.40;;;8.10;;
56122;SDS011;42426;46.104;19.656;2023-06-22T03:39:51;10.13;;;7.15;;
56122;SDS011;42426;46.104;19.656;2023-06-22T03:42:17;11.43;;;7.47;;
56122;SDS011;42426;46.104;19.656;2023-06-22T03:44:43;13.07;;;7.38;;
56122;SDS011;42426;46.104;19.656;2023-06-22T03:47:09;11.30;;;7.47;;
56122;SDS011;42426;46.104;19.656;2023-06-22T03:49:35;13.95;;;8.40;;
56122;SDS011;42426;46.104;19.656;2023-06-22T03:52:01;14.52;;;7.88;;
56122;SDS011;42426;46.104;19.656;2023-06-22T03:54:31;10.80;;;6.75;;
56122;SDS011;42426;46.104;19.656;2023-06-22T03:56:57;10.50;;;7.28;;
56122;SDS011;42426;46.104;19.656;2023-06-22T03:59:23;8.85;;;6.82;;
56122;SDS011;42426;46.104;19.656;2023-06-22T04:01:50;10.65;;;6.97;;
56122;SDS011;42426;46.104;19.656;2023-06-22T04:04:17;14.27;;;7.15;;
56122;SDS011;42426;46.104;19.656;2023-06-22T04:06:43;8.27;;;6.72;;
56122;SDS011;42426;46.104;19.656;2023-06-22T04:09:10;8.80;;;7.00;;
56122;SDS011;42426;46.104;19.656;2023-06-22T04:11:36;11.18;;;7.43;;
56122;SDS011;42426;46.104;19.656;2023-06-22T04:14:02;12.02;;;7.45;;
56122;SDS011;42426;46.104;19.656;2023-06-22T04:16:29;10.32;;;7.00;;
56122;SDS011;42426;46.104;19.656;2023-06-22T04:18:54;15.07;;;7.25;;
56122;SDS011;42426;46.104;19.656;2023-06-22T04:21:20;10.45;;;6.63;;
56122;SDS011;42426;46.104;19.656;2023-06-22T04:23:46;8.98;;;6.63;;
56122;SDS011;42426;46.104;19.656;2023-06-22T04:26:12;9.27;;;8.07;;
56122;SDS011;42426;46.104;19.656;2023-06-22T04:28:39;14.82;;;7.95;;
56122;SDS011;42426;46.104;19.656;2023-06-22T04:31:06;15.13;;;8.13;;
56122;SDS011;42426;46.104;19.656;2023-06-22T04:33:32;10.82;;;6.97;;
56122;SDS011;42426;46.104;19.656;2023-06-22T04:35:58;18.60;;;9.63;;
56122;SDS011;42426;46.104;19.656;2023-06-22T04:38:27;12.80;;;7.88;;
56122;SDS011;42426;46.104;19.656;2023-06-22T04:40:53;13.95;;;8.05;;
56122;SDS011;42426;46.104;19.656;2023-06-22T04:43:19;12.60;;;7.68;;
56122;SDS011;42426;46.104;19.656;2023-06-22T04:45:45;13.32;;;7.95;;
56122;SDS011;42426;46.104;19.656;2023-06-22T04:48:11;15.38;;;8.52;;
56122;SDS011;42426;46.104;19.656;2023-06-22T04:50:41;11.43;;;7.50;;
56122;SDS011;42426;46.104;19.656;2023-06-22T04:53:07;11.88;;;7.55;;
56122;SDS011;42426;46.104;19.656;2023-06-22T04:55:36;15.73;;;8.38;;
56122;SDS011;42426;46.104;19.656;2023-06-22T04:58:03;12.43;;;7.70;;
56122;SDS011;42426;46.104;19.656;2023-06-22T05:00:34;15.77;;;8.23;;
56122;SDS011;42426;46.104;19.656;2023-06-22T05:03:03;12.85;;;8.77;;
56122;SDS011;42426;46.104;19.656;2023-06-22T05:05:31;13.23;;;7.80;;
56122;SDS011;42426;46.104;19.656;2023-06-22T05:07:57;11.80;;;8.40;;
56122;SDS011;42426;46.104;19.656;2023-06-22T05:10:26;16.50;;;9.55;;
56122;SDS011;42426;46.104;19.656;2023-06-22T05:12:52;11.75;;;8.02;;
56122;SDS011;42426;46.104;19.656;2023-06-22T05:15:17;11.30;;;8.65;;
56122;SDS011;42426;46.104;19.656;2023-06-22T05:17:48;20.45;;;8.63;;
56122;SDS011;42426;46.104;19.656;2023-06-22T05:20:13;14.30;;;9.00;;
56122;SDS011;42426;46.104;19.656;2023-06-22T05:22:43;13.70;;;9.52;;
56122;SDS011;42426;46.104;19.656;2023-06-22T05:25:11;12.00;;;8.80;;
56122;SDS011;42426;46.104;19.656;2023-06-22T05:27:37;12.80;;;9.13;;
56122;SDS011;42426;46.104;19.656;2023-06-22T05:30:07;14.65;;;9.40;;
56122;SDS011;42426;46.104;19.656;2023-06-22T05:32:35;13.23;;;9.63;;
56122;SDS011;42426;46.104;19.656;2023-06-22T05:35:02;17.10;;;10.35;;
56122;SDS011;42426;46.104;19.656;2023-06-22T05:37:28;13.43;;;9.05;;
56122;SDS011;42426;46.104;19.656;2023-06-22T05:39:54;14.00;;;9.75;;
56122;SDS011;42426;46.104;19.656;2023-06-22T05:42:21;14.63;;;9.75;;
56122;SDS011;42426;46.104;19.656;2023-06-22T05:44:49;11.13;;;9.60;;
56122;SDS011;42426;46.104;19.656;2023-06-22T05:47:15;17.17;;;9.07;;
56122;SDS011;42426;46.104;19.656;2023-06-22T05:49:41;18.33;;;10.98;;
56122;SDS011;42426;46.104;19.656;2023-06-22T05:52:06;15.13;;;10.88;;
56122;SDS011;42426;46.104;19.656;2023-06-22T05:54:32;16.60;;;9.32;;
56122;SDS011;42426;46.104;19.656;2023-06-22T05:56:58;13.40;;;9.27;;
56122;SDS011;42426;46.104;19.656;2023-06-22T05:59:26;11.88;;;9.65;;
56122;SDS011;42426;46.104;19.656;2023-06-22T06:01:52;15.90;;;11.52;;
56122;SDS011;42426;46.104;19.656;2023-06-22T06:04:18;17.60;;;11.05;;
56122;SDS011;42426;46.104;19.656;2023-06-22T06:06:44;20.77;;;9.98;;
56122;SDS011;42426;46.104;19.656;2023-06-22T06:09:10;16.45;;;10.10;;
56122;SDS011;42426;46.104;19.656;2023-06-22T06:11:36;13.98;;;10.25;;
56122;SDS011;42426;46.104;19.656;2023-06-22T06:14:03;13.73;;;9.32;;
56122;SDS011;42426;46.104;19.656;2023-06-22T06:16:28;14.85;;;11.27;;
56122;SDS011;42426;46.104;19.656;2023-06-22T06:18:54;14.55;;;10.73;;
56122;SDS011;42426;46.104;19.656;2023-06-22T06:21:21;15.98;;;10.23;;
56122;SDS011;42426;46.104;19.656;2023-06-22T06:23:47;16.70;;;10.45;;
56122;SDS011;42426;46.104;19.656;2023-06-22T06:26:13;13.98;;;10.10;;
56122;SDS011;42426;46.104;19.656;2023-06-22T06:28:44;15.13;;;11.70;;
56122;SDS011;42426;46.104;19.656;2023-06-22T06:31:11;16.58;;;11.50;;
56122;SDS011;42426;46.104;19.656;2023-06-22T06:33:42;11.93;;;10.73;;
56122;SDS011;42426;46.104;19.656;2023-06-22T06:36:07;17.27;;;11.45;;
56122;SDS011;42426;46.104;19.656;2023-06-22T06:38:33;13.52;;;11.05;;
56122;SDS011;42426;46.104;19.656;2023-06-22T06:40:59;12.70;;;11.13;;
56122;SDS011;42426;46.104;19.656;2023-06-22T06:43:25;17.67;;;13.18;;
56122;SDS011;42426;46.104;19.656;2023-06-22T06:45:50;16.15;;;11.52;;
56122;SDS011;42426;46.104;19.656;2023-06-22T06:48:16;14.32;;;11.75;;
56122;SDS011;42426;46.104;19.656;2023-06-22T06:50:42;14.80;;;12.20;;
56122;SDS011;42426;46.104;19.656;2023-06-22T06:53:09;13.10;;;11.43;;
56122;SDS011;42426;46.104;19.656;2023-06-22T06:55:36;13.75;;;11.10;;
56122;SDS011;42426;46.104;19.656;2023-06-22T06:58:02;17.48;;;11.95;;
56122;SDS011;42426;46.104;19.656;2023-06-22T07:00:32;15.73;;;12.35;;
56122;SDS011;42426;46.104;19.656;2023-06-22T07:02:58;19.65;;;12.65;;
56122;SDS011;42426;46.104;19.656;2023-06-22T07:05:24;13.52;;;12.05;;
56122;SDS011;42426;46.104;19.656;2023-06-22T07:07:49;17.45;;;11.98;;
56122;SDS011;42426;46.104;19.656;2023-06-22T07:10:15;14.45;;;12.27;;
56122;SDS011;42426;46.104;19.656;2023-06-22T07:12:41;14.60;;;11.90;;
56122;SDS011;42426;46.104;19.656;2023-06-22T07:15:08;17.83;;;12.10;;
56122;SDS011;42426;46.104;19.656;2023-06-22T07:17:35;13.65;;;12.23;;
56122;SDS011;42426;46.104;19.656;2023-06-22T07:20:01;15.75;;;12.48;;
56122;SDS011;42426;46.104;19.656;2023-06-22T07:22:32;26.05;;;13.25;;
56122;SDS011;42426;46.104;19.656;2023-06-22T07:24:58;15.63;;;11.95;;
56122;SDS011;42426;46.104;19.656;2023-06-22T07:27:24;17.30;;;11.95;;
56122;SDS011;42426;46.104;19.656;2023-06-22T07:29:50;13.55;;;11.93;;
56122;SDS011;42426;46.104;19.656;2023-06-22T07:32:16;18.48;;;12.43;;
56122;SDS011;42426;46.104;19.656;2023-06-22T07:34:42;24.48;;;12.32;;
56122;SDS011;42426;46.104;19.656;2023-06-22T07:37:08;18.08;;;12.85;;
56122;SDS011;42426;46.104;19.656;2023-06-22T07:39:34;15.07;;;11.88;;
56122;SDS011;42426;46.104;19.656;2023-06-22T07:42:00;14.02;;;12.48;;
56122;SDS011;42426;46.104;19.656;2023-06-22T07:44:26;22.48;;;13.13;;
56122;SDS011;42426;46.104;19.656;2023-06-22T07:46:51;14.40;;;12.77;;
56122;SDS011;42426;46.104;19.656;2023-06-22T07:49:17;20.70;;;13.88;;
56122;SDS011;42426;46.104;19.656;2023-06-22T07:51:43;14.93;;;12.77;;
56122;SDS011;42426;46.104;19.656;2023-06-22T07:57:31;19.95;;;14.00;;
56122;SDS011;42426;46.104;19.656;2023-06-22T08:03:47;18.10;;;13.68;;
56122;SDS011;42426;46.104;19.656;2023-06-22T08:06:13;16.88;;;13.63;;
56122;SDS011;42426;46.104;19.656;2023-06-22T08:08:40;17.13;;;14.50;;
56122;SDS011;42426;46.104;19.656;2023-06-22T08:11:05;14.00;;;12.63;;
56122;SDS011;42426;46.104;19.656;2023-06-22T08:13:31;21.02;;;17.27;;
56122;SDS011;42426;46.104;19.656;2023-06-22T08:15:58;31.05;;;14.88;;
56122;SDS011;42426;46.104;19.656;2023-06-22T08:18:24;24.40;;;14.38;;
56122;SDS011;42426;46.104;19.656;2023-06-22T08:20:49;24.02;;;15.75;;
56122;SDS011;42426;46.104;19.656;2023-06-22T08:23:16;19.25;;;14.95;;
56122;SDS011;42426;46.104;19.656;2023-06-22T08:25:42;16.40;;;14.68;;
56122;SDS011;42426;46.104;19.656;2023-06-22T08:28:08;20.88;;;15.73;;
56122;SDS011;42426;46.104;19.656;2023-06-22T08:30:34;21.00;;;15.73;;
56122;SDS011;42426;46.104;19.656;2023-06-22T08:32:59;18.15;;;16.23;;
56122;SDS011;42426;46.104;19.656;2023-06-22T08:35:25;20.45;;;18.00;;
56122;SDS011;42426;46.104;19.656;2023-06-22T08:37:51;18.25;;;16.45;;
56122;SDS011;42426;46.104;19.656;2023-06-22T08:40:20;19.00;;;16.88;;
56122;SDS011;42426;46.104;19.656;2023-06-22T08:42:46;17.42;;;15.68;;
56122;SDS011;42426;46.104;19.656;2023-06-22T08:45:13;23.58;;;17.67;;
56122;SDS011;42426;46.104;19.656;2023-06-22T08:47:39;25.23;;;16.42;;
56122;SDS011;42426;46.104;19.656;2023-06-22T08:53:30;19.27;;;15.93;;
56122;SDS011;42426;46.104;19.656;2023-06-22T08:59:17;18.05;;;16.02;;
56122;SDS011;42426;46.104;19.656;2023-06-22T09:05:05;22.38;;;16.73;;
56122;SDS011;42426;46.104;19.656;2023-06-22T09:10:53;18.08;;;16.17;;
56122;SDS011;42426;46.104;19.656;2023-06-22T09:20:09;19.77;;;16.73;;
56122;SDS011;42426;46.104;19.656;2023-06-22T09:25:58;18.42;;;15.93;;
56122;SDS011;42426;46.104;19.656;2023-06-22T09:28:24;21.13;;;17.63;;
56122;SDS011;42426;46.104;19.656;2023-06-22T09:30:50;17.92;;;16.08;;
56122;SDS011;42426;46.104;19.656;2023-06-22T09:33:15;19.10;;;16.95;;
56122;SDS011;42426;46.104;19.656;2023-06-22T09:35:41;19.35;;;17.55;;
56122;SDS011;42426;46.104;19.656;2023-06-22T09:38:07;19.05;;;17.00;;
56122;SDS011;42426;46.104;19.656;2023-06-22T09:40:33;19.50;;;17.48;;
56122;SDS011;42426;46.104;19.656;2023-06-22T09:43:05;18.30;;;16.35;;
56122;SDS011;42426;46.104;19.656;2023-06-22T09:45:31;21.02;;;18.17;;
56122;SDS011;42426;46.104;19.656;2023-06-22T09:47:57;17.10;;;15.32;;
56122;SDS011;42426;46.104;19.656;2023-06-22T09:50:22;20.30;;;16.90;;
56122;SDS011;42426;46.104;19.656;2023-06-22T09:52:48;18.25;;;15.85;;
56122;SDS011;42426;46.104;19.656;2023-06-22T09:55:22;19.98;;;16.83;;
56122;SDS011;42426;46.104;19.656;2023-06-22T09:57:49;18.38;;;16.42;;
56122;SDS011;42426;46.104;19.656;2023-06-22T10:00:16;19.40;;;16.90;;
56122;SDS011;42426;46.104;19.656;2023-06-22T10:02:42;19.30;;;17.33;;
56122;SDS011;42426;46.104;19.656;2023-06-22T10:05:08;20.00;;;16.27;;
56122;SDS011;42426;46.104;19.656;2023-06-22T10:07:34;16.80;;;15.02;;
56122;SDS011;42426;46.104;19.656;2023-06-22T10:10:05;17.88;;;16.08;;
56122;SDS011;42426;46.104;19.656;2023-06-22T10:12:31;17.35;;;15.63;;
56122;SDS011;42426;46.104;19.656;2023-06-22T10:14:57;23.42;;;17.73;;
56122;SDS011;42426;46.104;19.656;2023-06-22T10:17:23;16.50;;;14.75;;
56122;SDS011;42426;46.104;19.656;2023-06-22T10:19:49;20.95;;;15.77;;
56122;SDS011;42426;46.104;19.656;2023-06-22T10:22:14;17.00;;;15.20;;
56122;SDS011;42426;46.104;19.656;2023-06-22T10:24:40;17.60;;;15.75;;
56122;SDS011;42426;46.104;19.656;2023-06-22T10:27:12;17.48;;;15.45;;
56122;SDS011;42426;46.104;19.656;2023-06-22T10:29:38;19.08;;;16.77;;
56122;SDS011;42426;46.104;19.656;2023-06-22T10:32:05;18.17;;;15.93;;
56122;SDS011;42426;46.104;19.656;2023-06-22T10:34:32;17.02;;;15.23;;
56122;SDS011;42426;46.104;19.656;2023-06-22T10:36:57;26.90;;;15.73;;
56122;SDS011;42426;46.104;19.656;2023-06-22T10:39:23;17.42;;;15.82;;
56122;SDS011;42426;46.104;19.656;2023-06-22T10:41:49;19.67;;;16.02;;
56122;SDS011;42426;46.104;19.656;2023-06-22T10:44:15;16.15;;;14.55;;
56122;SDS011;42426;46.104;19.656;2023-06-22T10:46:42;16.00;;;14.55;;
56122;SDS011;42426;46.104;19.656;2023-06-22T10:49:08;17.10;;;15.40;;
56122;SDS011;42426;46.104;19.656;2023-06-22T10:51:34;18.63;;;16.10;;
56122;SDS011;42426;46.104;19.656;2023-06-22T10:53:59;19.35;;;15.73;;
56122;SDS011;42426;46.104;19.656;2023-06-22T10:56:25;18.05;;;16.30;;
56122;SDS011;42426;46.104;19.656;2023-06-22T10:58:51;16.33;;;14.63;;
56122;SDS011;42426;46.104;19.656;2023-06-22T11:01:16;28.33;;;16.88;;
56122;SDS011;42426;46.104;19.656;2023-06-22T11:03:42;17.50;;;15.80;;
56122;SDS011;42426;46.104;19.656;2023-06-22T11:06:08;20.35;;;18.10;;
56122;SDS011;42426;46.104;19.656;2023-06-22T11:08:34;17.25;;;15.55;;
56122;SDS011;42426;46.104;19.656;2023-06-22T11:10:59;16.83;;;15.00;;
56122;SDS011;42426;46.104;19.656;2023-06-22T11:13:25;25.65;;;16.13;;
56122;SDS011;42426;46.104;19.656;2023-06-22T11:15:51;17.38;;;15.32;;
56122;SDS011;42426;46.104;19.656;2023-06-22T11:18:17;18.60;;;16.65;;
56122;SDS011;42426;46.104;19.656;2023-06-22T11:20:43;17.23;;;15.52;;
56122;SDS011;42426;46.104;19.656;2023-06-22T11:23:09;17.30;;;15.43;;
56122;SDS011;42426;46.104;19.656;2023-06-22T11:25:37;18.92;;;16.95;;
56122;SDS011;42426;46.104;19.656;2023-06-22T11:28:03;19.83;;;15.60;;
56122;SDS011;42426;46.104;19.656;2023-06-22T11:30:30;18.00;;;15.70;;
56122;SDS011;42426;46.104;19.656;2023-06-22T11:32:56;18.75;;;15.20;;
56122;SDS011;42426;46.104;19.656;2023-06-22T11:35:23;17.38;;;15.52;;
56122;SDS011;42426;46.104;19.656;2023-06-22T11:37:49;18.75;;;16.63;;
56122;SDS011;42426;46.104;19.656;2023-06-22T11:40:15;23.10;;;16.88;;
56122;SDS011;42426;46.104;19.656;2023-06-22T11:42:42;19.73;;;16.05;;
56122;SDS011;42426;46.104;19.656;2023-06-22T11:45:08;17.02;;;15.30;;
56122;SDS011;42426;46.104;19.656;2023-06-22T11:47:34;23.73;;;17.38;;
56122;SDS011;42426;46.104;19.656;2023-06-22T11:50:02;22.05;;;17.17;;
56122;SDS011;42426;46.104;19.656;2023-06-22T11:52:28;17.10;;;15.45;;
56122;SDS011;42426;46.104;19.656;2023-06-22T11:54:54;22.30;;;17.50;;
56122;SDS011;42426;46.104;19.656;2023-06-22T11:57:20;18.83;;;17.00;;
56122;SDS011;42426;46.104;19.656;2023-06-22T11:59:46;20.52;;;17.38;;
56122;SDS011;42426;46.104;19.656;2023-06-22T12:02:11;19.17;;;16.88;;
56122;SDS011;42426;46.104;19.656;2023-06-22T12:04:37;22.25;;;17.92;;
56122;SDS011;42426;46.104;19.656;2023-06-22T12:07:03;22.05;;;16.65;;
56122;SDS011;42426;46.104;19.656;2023-06-22T12:09:29;20.35;;;15.40;;
56122;SDS011;42426;46.104;19.656;2023-06-22T12:11:54;19.63;;;14.38;;
56122;SDS011;42426;46.104;19.656;2023-06-22T12:14:20;20.40;;;15.25;;
56122;SDS011;42426;46.104;19.656;2023-06-22T12:16:46;20.02;;;16.23;;
56122;SDS011;42426;46.104;19.656;2023-06-22T12:19:12;20.95;;;16.38;;
56122;SDS011;42426;46.104;19.656;2023-06-22T12:21:37;18.10;;;16.33;;
56122;SDS011;42426;46.104;19.656;2023-06-22T12:24:05;20.40;;;14.70;;
56122;SDS011;42426;46.104;19.656;2023-06-22T12:26:31;18.30;;;16.35;;
56122;SDS011;42426;46.104;19.656;2023-06-22T12:28:57;20.02;;;15.43;;
56122;SDS011;42426;46.104;19.656;2023-06-22T12:31:23;16.77;;;14.98;;
56122;SDS011;42426;46.104;19.656;2023-06-22T12:33:49;20.73;;;15.45;;
56122;SDS011;42426;46.104;19.656;2023-06-22T12:36:15;18.75;;;16.88;;
56122;SDS011;42426;46.104;19.656;2023-06-22T12:38:41;20.70;;;16.27;;
56122;SDS011;42426;46.104;19.656;2023-06-22T12:41:07;20.27;;;16.40;;
56122;SDS011;42426;46.104;19.656;2023-06-22T12:43:33;20.80;;;15.70;;
56122;SDS011;42426;46.104;19.656;2023-06-22T12:45:58;18.98;;;16.25;;
56122;SDS011;42426;46.104;19.656;2023-06-22T12:48:25;18.58;;;16.75;;
56122;SDS011;42426;46.104;19.656;2023-06-22T12:50:53;16.98;;;15.13;;
56122;SDS011;42426;46.104;19.656;2023-06-22T12:53:19;18.60;;;16.60;;
56122;SDS011;42426;46.104;19.656;2023-06-22T12:55:45;17.83;;;16.20;;
56122;SDS011;42426;46.104;19.656;2023-06-22T12:58:11;20.58;;;16.00;;
56122;SDS011;42426;46.104;19.656;2023-06-22T13:00:37;17.83;;;16.13;;
56122;SDS011;42426;46.104;19.656;2023-06-22T13:03:03;17.50;;;15.75;;
56122;SDS011;42426;46.104;19.656;2023-06-22T13:05:29;19.02;;;17.35;;
56122;SDS011;42426;46.104;19.656;2023-06-22T13:07:55;19.88;;;15.57;;
56122;SDS011;42426;46.104;19.656;2023-06-22T13:10:21;19.27;;;17.35;;
56122;SDS011;42426;46.104;19.656;2023-06-22T13:12:47;18.77;;;16.55;;
56122;SDS011;42426;46.104;19.656;2023-06-22T13:15:13;20.73;;;17.67;;
56122;SDS011;42426;46.104;19.656;2023-06-22T13:17:38;21.92;;;16.65;;
56122;SDS011;42426;46.104;19.656;2023-06-22T13:20:04;19.65;;;17.80;;
56122;SDS011;42426;46.104;19.656;2023-06-22T13:22:32;20.25;;;17.17;;
56122;SDS011;42426;46.104;19.656;2023-06-22T13:24:59;20.02;;;17.92;;
56122;SDS011;42426;46.104;19.656;2023-06-22T13:27:26;19.65;;;17.50;;
56122;SDS011;42426;46.104;19.656;2023-06-22T13:29:52;20.02;;;17.92;;
56122;SDS011;42426;46.104;19.656;2023-06-22T13:32:19;18.63;;;16.98;;
56122;SDS011;42426;46.104;19.656;2023-06-22T13:34:44;19.98;;;17.98;;
56122;SDS011;42426;46.104;19.656;2023-06-22T13:37:10;22.60;;;18.25;;
56122;SDS011;42426;46.104;19.656;2023-06-22T13:39:36;20.00;;;18.15;;
56122;SDS011;42426;46.104;19.656;2023-06-22T13:42:02;24.15;;;18.65;;
56122;SDS011;42426;46.104;19.656;2023-06-22T13:44:27;24.42;;;18.70;;
56122;SDS011;42426;46.104;19.656;2023-06-22T13:46:57;21.30;;;18.42;;
56122;SDS011;42426;46.104;19.656;2023-06-22T13:49:22;21.33;;;19.10;;
56122;SDS011;42426;46.104;19.656;2023-06-22T13:51:48;21.90;;;19.58;;
56122;SDS011;42426;46.104;19.656;2023-06-22T13:54:15;20.70;;;18.50;;
56122;SDS011;42426;46.104;19.656;2023-06-22T13:56:43;22.88;;;18.88;;
56122;SDS011;42426;46.104;19.656;2023-06-22T13:59:08;19.77;;;17.75;;
56122;SDS011;42426;46.104;19.656;2023-06-22T14:01:35;21.63;;;17.83;;
56122;SDS011;42426;46.104;19.656;2023-06-22T14:04:01;21.20;;;19.30;;
56122;SDS011;42426;46.104;19.656;2023-06-22T14:06:28;20.80;;;18.55;;
56122;SDS011;42426;46.104;19.656;2023-06-22T14:08:54;25.00;;;19.48;;
56122;SDS011;42426;46.104;19.656;2023-06-22T14:11:20;20.73;;;18.80;;
56122;SDS011;42426;46.104;19.656;2023-06-22T14:13:45;23.40;;;19.98;;
56122;SDS011;42426;46.104;19.656;2023-06-22T14:16:11;24.15;;;19.88;;
56122;SDS011;42426;46.104;19.656;2023-06-22T14:18:37;24.38;;;18.52;;
56122;SDS011;42426;46.104;19.656;2023-06-22T14:21:03;23.00;;;19.30;;
56122;SDS011;42426;46.104;19.656;2023-06-22T14:23:28;20.73;;;18.58;;
56122;SDS011;42426;46.104;19.656;2023-06-22T14:25:54;22.65;;;19.15;;
56122;SDS011;42426;46.104;19.656;2023-06-22T14:28:20;26.08;;;19.98;;
56122;SDS011;42426;46.104;19.656;2023-06-22T14:30:46;25.75;;;20.17;;
56122;SDS011;42426;46.104;19.656;2023-06-22T14:33:12;26.27;;;20.35;;
56122;SDS011;42426;46.104;19.656;2023-06-22T14:35:38;23.58;;;20.88;;
56122;SDS011;42426;46.104;19.656;2023-06-22T14:38:03;26.10;;;19.67;;
56122;SDS011;42426;46.104;19.656;2023-06-22T14:40:29;22.92;;;19.63;;
56122;SDS011;42426;46.104;19.656;2023-06-22T14:42:55;24.63;;;20.95;;
56122;SDS011;42426;46.104;19.656;2023-06-22T14:45:22;25.35;;;21.65;;
56122;SDS011;42426;46.104;19.656;2023-06-22T14:47:48;28.80;;;21.30;;
56122;SDS011;42426;46.104;19.656;2023-06-22T14:50:14;27.00;;;21.15;;
56122;SDS011;42426;46.104;19.656;2023-06-22T14:52:40;24.33;;;21.73;;
56122;SDS011;42426;46.104;19.656;2023-06-22T14:55:06;30.02;;;21.45;;